< < Back
Terminal Aerodrome Forecast


Current Version              Previous Versions:   1  2  3  4  5  6  7  8  9  

Terminal Aerodrome Forecast

050
FTUS44 KBMX 251100
TAFTCL
TAF
KTCL 251137Z 2512/2612 34004KT P6SM SCT150
     FM251700 33008KT P6SM SCT150
     FM260000 32003KT P6SM OVC100=



Latest METAR

710
SAUS70 KWBC 260400 RRB
MTRTCL
METAR KTCL 260353Z AUTO 32003KT 10SM CLR 08/00 A3018 RMK AO2 SLP219
T00780000


USA.gov is the U.S. government's official web portal to all federal, state and local government web resources and services.